sensor_id;sensor_type;location;lat;lon;timestamp;P1;durP1;ratioP1;P2;durP2;ratioP2
56043;SDS011;41912;51.022;3.664;2023-06-22T00:00:32;7.78;;;2.70;;
56043;SDS011;41912;51.022;3.664;2023-06-22T00:02:58;3.80;;;2.70;;
56043;SDS011;41912;51.022;3.664;2023-06-22T00:05:23;4.18;;;2.50;;
56043;SDS011;41912;51.022;3.664;2023-06-22T00:07:49;4.63;;;2.55;;
56043;SDS011;41912;51.022;3.664;2023-06-22T00:10:14;5.18;;;2.63;;
56043;SDS011;41912;51.022;3.664;2023-06-22T00:12:40;5.88;;;2.83;;
56043;SDS011;41912;51.022;3.664;2023-06-22T00:15:06;5.60;;;2.97;;
56043;SDS011;41912;51.022;3.664;2023-06-22T00:17:31;5.90;;;2.72;;
56043;SDS011;41912;51.022;3.664;2023-06-22T00:19:57;5.43;;;2.85;;
56043;SDS011;41912;51.022;3.664;2023-06-22T00:22:23;5.80;;;2.75;;
56043;SDS011;41912;51.022;3.664;2023-06-22T00:24:53;8.90;;;3.80;;
56043;SDS011;41912;51.022;3.664;2023-06-22T00:27:19;7.32;;;2.90;;
56043;SDS011;41912;51.022;3.664;2023-06-22T00:29:45;4.85;;;2.95;;
56043;SDS011;41912;51.022;3.664;2023-06-22T00:32:11;8.40;;;3.15;;
56043;SDS011;41912;51.022;3.664;2023-06-22T00:34:36;6.07;;;3.13;;
56043;SDS011;41912;51.022;3.664;2023-06-22T00:37:02;5.28;;;2.95;;
56043;SDS011;41912;51.022;3.664;2023-06-22T00:39:27;4.00;;;2.80;;
56043;SDS011;41912;51.022;3.664;2023-06-22T00:41:53;7.57;;;2.70;;
56043;SDS011;41912;51.022;3.664;2023-06-22T00:44:19;6.63;;;3.33;;
56043;SDS011;41912;51.022;3.664;2023-06-22T00:46:45;4.72;;;2.90;;
56043;SDS011;41912;51.022;3.664;2023-06-22T00:49:10;4.63;;;3.15;;
56043;SDS011;41912;51.022;3.664;2023-06-22T00:51:37;8.05;;;3.67;;
56043;SDS011;41912;51.022;3.664;2023-06-22T00:54:03;6.13;;;2.70;;
56043;SDS011;41912;51.022;3.664;2023-06-22T00:56:30;9.70;;;3.30;;
56043;SDS011;41912;51.022;3.664;2023-06-22T00:58:57;6.18;;;3.40;;
56043;SDS011;41912;51.022;3.664;2023-06-22T01:01:24;7.97;;;3.95;;
56043;SDS011;41912;51.022;3.664;2023-06-22T01:03:50;9.65;;;3.10;;
56043;SDS011;41912;51.022;3.664;2023-06-22T01:06:17;5.78;;;3.20;;
56043;SDS011;41912;51.022;3.664;2023-06-22T01:08:53;9.07;;;3.42;;
56043;SDS011;41912;51.022;3.664;2023-06-22T01:11:32;40.10;;;4.05;;
56043;SDS011;41912;51.022;3.664;2023-06-22T01:14:06;8.02;;;2.80;;
56043;SDS011;41912;51.022;3.664;2023-06-22T01:16:38;5.65;;;3.00;;
56043;SDS011;41912;51.022;3.664;2023-06-22T01:19:20;5.18;;;3.60;;
56043;SDS011;41912;51.022;3.664;2023-06-22T01:21:49;10.23;;;2.83;;
56043;SDS011;41912;51.022;3.664;2023-06-22T01:24:22;6.43;;;3.15;;
56043;SDS011;41912;51.022;3.664;2023-06-22T01:26:55;7.43;;;3.40;;
56043;SDS011;41912;51.022;3.664;2023-06-22T01:29:23;6.32;;;3.47;;
56043;SDS011;41912;51.022;3.664;2023-06-22T01:31:51;5.72;;;3.08;;
56043;SDS011;41912;51.022;3.664;2023-06-22T01:34:18;5.30;;;3.10;;
56043;SDS011;41912;51.022;3.664;2023-06-22T01:36:44;5.20;;;3.40;;
56043;SDS011;41912;51.022;3.664;2023-06-22T01:39:11;8.48;;;2.88;;
56043;SDS011;41912;51.022;3.664;2023-06-22T01:41:37;5.43;;;3.30;;
56043;SDS011;41912;51.022;3.664;2023-06-22T01:44:05;4.30;;;3.20;;
56043;SDS011;41912;51.022;3.664;2023-06-22T01:46:34;8.02;;;3.00;;
56043;SDS011;41912;51.022;3.664;2023-06-22T01:49:01;8.60;;;3.30;;
56043;SDS011;41912;51.022;3.664;2023-06-22T01:51:27;5.43;;;3.08;;
56043;SDS011;41912;51.022;3.664;2023-06-22T01:53:53;5.28;;;3.10;;
56043;SDS011;41912;51.022;3.664;2023-06-22T01:56:19;5.97;;;3.38;;
56043;SDS011;41912;51.022;3.664;2023-06-22T01:58:51;4.63;;;3.40;;
56043;SDS011;41912;51.022;3.664;2023-06-22T02:01:41;6.72;;;3.45;;
56043;SDS011;41912;51.022;3.664;2023-06-22T02:04:11;5.20;;;3.00;;
56043;SDS011;41912;51.022;3.664;2023-06-22T02:06:42;10.93;;;3.70;;
56043;SDS011;41912;51.022;3.664;2023-06-22T02:09:11;8.25;;;4.10;;
56043;SDS011;41912;51.022;3.664;2023-06-22T02:11:41;5.82;;;3.05;;
56043;SDS011;41912;51.022;3.664;2023-06-22T02:14:09;9.32;;;4.03;;
56043;SDS011;41912;51.022;3.664;2023-06-22T02:16:35;5.85;;;3.67;;
56043;SDS011;41912;51.022;3.664;2023-06-22T02:19:02;14.60;;;4.15;;
56043;SDS011;41912;51.022;3.664;2023-06-22T02:21:28;6.97;;;3.90;;
56043;SDS011;41912;51.022;3.664;2023-06-22T02:23:55;8.55;;;4.25;;
56043;SDS011;41912;51.022;3.664;2023-06-22T02:26:20;7.45;;;4.00;;
56043;SDS011;41912;51.022;3.664;2023-06-22T02:28:47;9.85;;;3.47;;
56043;SDS011;41912;51.022;3.664;2023-06-22T02:31:12;5.45;;;3.72;;
56043;SDS011;41912;51.022;3.664;2023-06-22T02:33:38;7.95;;;4.05;;
56043;SDS011;41912;51.022;3.664;2023-06-22T02:36:04;7.93;;;3.55;;
56043;SDS011;41912;51.022;3.664;2023-06-22T02:38:30;10.55;;;5.07;;
56043;SDS011;41912;51.022;3.664;2023-06-22T02:40:59;6.60;;;4.00;;
56043;SDS011;41912;51.022;3.664;2023-06-22T02:43:25;8.10;;;4.93;;
56043;SDS011;41912;51.022;3.664;2023-06-22T02:45:50;10.30;;;4.38;;
56043;SDS011;41912;51.022;3.664;2023-06-22T02:48:16;7.43;;;4.07;;
56043;SDS011;41912;51.022;3.664;2023-06-22T02:50:42;7.22;;;4.38;;
56043;SDS011;41912;51.022;3.664;2023-06-22T02:53:07;7.32;;;4.75;;
56043;SDS011;41912;51.022;3.664;2023-06-22T02:55:33;7.15;;;4.78;;
56043;SDS011;41912;51.022;3.664;2023-06-22T02:58:00;8.63;;;4.70;;
56043;SDS011;41912;51.022;3.664;2023-06-22T03:00:29;10.05;;;4.43;;
56043;SDS011;41912;51.022;3.664;2023-06-22T03:02:56;11.40;;;5.15;;
56043;SDS011;41912;51.022;3.664;2023-06-22T03:05:22;11.98;;;5.05;;
56043;SDS011;41912;51.022;3.664;2023-06-22T03:07:48;13.73;;;5.50;;
56043;SDS011;41912;51.022;3.664;2023-06-22T03:10:14;15.13;;;5.45;;
56043;SDS011;41912;51.022;3.664;2023-06-22T03:12:41;12.45;;;4.97;;
56043;SDS011;41912;51.022;3.664;2023-06-22T03:15:07;9.52;;;5.70;;
56043;SDS011;41912;51.022;3.664;2023-06-22T03:17:36;9.43;;;5.47;;
56043;SDS011;41912;51.022;3.664;2023-06-22T03:20:04;11.88;;;5.63;;
56043;SDS011;41912;51.022;3.664;2023-06-22T03:22:36;9.57;;;5.63;;
56043;SDS011;41912;51.022;3.664;2023-06-22T03:25:02;9.50;;;5.45;;
56043;SDS011;41912;51.022;3.664;2023-06-22T03:27:28;7.47;;;5.28;;
56043;SDS011;41912;51.022;3.664;2023-06-22T03:29:53;10.52;;;5.65;;
56043;SDS011;41912;51.022;3.664;2023-06-22T03:32:19;10.85;;;6.03;;
56043;SDS011;41912;51.022;3.664;2023-06-22T03:34:45;12.75;;;6.70;;
56043;SDS011;41912;51.022;3.664;2023-06-22T03:37:13;13.95;;;6.38;;
56043;SDS011;41912;51.022;3.664;2023-06-22T03:39:40;12.13;;;6.50;;
56043;SDS011;41912;51.022;3.664;2023-06-22T03:42:06;11.32;;;5.90;;
56043;SDS011;41912;51.022;3.664;2023-06-22T03:44:32;11.43;;;6.38;;
56043;SDS011;41912;51.022;3.664;2023-06-22T03:46:58;16.45;;;6.38;;
56043;SDS011;41912;51.022;3.664;2023-06-22T03:49:23;14.02;;;6.28;;
56043;SDS011;41912;51.022;3.664;2023-06-22T03:51:49;13.05;;;6.45;;
56043;SDS011;41912;51.022;3.664;2023-06-22T03:54:15;12.27;;;6.68;;
56043;SDS011;41912;51.022;3.664;2023-06-22T03:56:40;10.48;;;6.40;;
56043;SDS011;41912;51.022;3.664;2023-06-22T03:59:06;12.55;;;7.25;;
56043;SDS011;41912;51.022;3.664;2023-06-22T04:01:32;12.85;;;6.50;;
56043;SDS011;41912;51.022;3.664;2023-06-22T04:03:57;13.90;;;6.35;;
56043;SDS011;41912;51.022;3.664;2023-06-22T04:06:23;12.93;;;7.20;;
56043;SDS011;41912;51.022;3.664;2023-06-22T04:08:48;11.98;;;7.45;;
56043;SDS011;41912;51.022;3.664;2023-06-22T04:11:16;11.88;;;6.68;;
56043;SDS011;41912;51.022;3.664;2023-06-22T04:13:42;14.23;;;7.97;;
56043;SDS011;41912;51.022;3.664;2023-06-22T04:16:08;12.90;;;6.95;;
56043;SDS011;41912;51.022;3.664;2023-06-22T04:18:34;13.90;;;7.50;;
56043;SDS011;41912;51.022;3.664;2023-06-22T04:20:59;16.40;;;7.10;;
56043;SDS011;41912;51.022;3.664;2023-06-22T04:23:25;11.98;;;7.57;;
56043;SDS011;41912;51.022;3.664;2023-06-22T04:25:51;12.18;;;7.82;;
56043;SDS011;41912;51.022;3.664;2023-06-22T04:28:16;17.42;;;8.23;;
56043;SDS011;41912;51.022;3.664;2023-06-22T04:30:42;11.35;;;7.28;;
56043;SDS011;41912;51.022;3.664;2023-06-22T04:33:12;14.13;;;7.50;;
56043;SDS011;41912;51.022;3.664;2023-06-22T04:35:38;15.73;;;7.97;;
56043;SDS011;41912;51.022;3.664;2023-06-22T04:38:06;12.68;;;8.40;;
56043;SDS011;41912;51.022;3.664;2023-06-22T04:40:32;14.98;;;8.25;;
56043;SDS011;41912;51.022;3.664;2023-06-22T04:42:58;13.60;;;8.25;;
56043;SDS011;41912;51.022;3.664;2023-06-22T04:45:27;11.70;;;7.82;;
56043;SDS011;41912;51.022;3.664;2023-06-22T04:47:54;14.48;;;7.43;;
56043;SDS011;41912;51.022;3.664;2023-06-22T04:50:20;14.52;;;8.05;;
56043;SDS011;41912;51.022;3.664;2023-06-22T04:52:46;13.43;;;8.63;;
56043;SDS011;41912;51.022;3.664;2023-06-22T04:55:12;12.18;;;8.52;;
56043;SDS011;41912;51.022;3.664;2023-06-22T04:57:43;18.13;;;9.20;;
56043;SDS011;41912;51.022;3.664;2023-06-22T05:00:13;15.13;;;8.68;;
56043;SDS011;41912;51.022;3.664;2023-06-22T05:02:42;11.95;;;8.35;;
56043;SDS011;41912;51.022;3.664;2023-06-22T05:05:10;15.90;;;8.90;;
56043;SDS011;41912;51.022;3.664;2023-06-22T05:07:38;16.15;;;9.80;;
56043;SDS011;41912;51.022;3.664;2023-06-22T05:10:08;16.63;;;9.20;;
56043;SDS011;41912;51.022;3.664;2023-06-22T05:12:35;18.38;;;9.80;;
56043;SDS011;41912;51.022;3.664;2023-06-22T05:15:00;16.88;;;9.77;;
56043;SDS011;41912;51.022;3.664;2023-06-22T05:17:26;15.05;;;10.00;;
56043;SDS011;41912;51.022;3.664;2023-06-22T05:19:52;17.73;;;9.90;;
56043;SDS011;41912;51.022;3.664;2023-06-22T05:22:18;17.08;;;9.93;;
56043;SDS011;41912;51.022;3.664;2023-06-22T05:24:44;17.52;;;10.20;;
56043;SDS011;41912;51.022;3.664;2023-06-22T05:27:10;27.95;;;11.05;;
56043;SDS011;41912;51.022;3.664;2023-06-22T05:29:36;23.45;;;11.27;;
56043;SDS011;41912;51.022;3.664;2023-06-22T05:32:02;21.95;;;10.57;;
56043;SDS011;41912;51.022;3.664;2023-06-22T05:34:28;18.65;;;11.13;;
56043;SDS011;41912;51.022;3.664;2023-06-22T05:36:54;20.38;;;11.07;;
56043;SDS011;41912;51.022;3.664;2023-06-22T05:39:19;21.48;;;11.48;;
56043;SDS011;41912;51.022;3.664;2023-06-22T05:41:45;19.92;;;10.90;;
56043;SDS011;41912;51.022;3.664;2023-06-22T05:44:11;24.10;;;11.18;;
56043;SDS011;41912;51.022;3.664;2023-06-22T05:46:40;18.15;;;10.52;;
56043;SDS011;41912;51.022;3.664;2023-06-22T05:49:09;21.55;;;11.27;;
56043;SDS011;41912;51.022;3.664;2023-06-22T05:51:35;29.65;;;12.15;;
56043;SDS011;41912;51.022;3.664;2023-06-22T05:54:01;20.23;;;10.38;;
56043;SDS011;41912;51.022;3.664;2023-06-22T05:56:26;19.08;;;10.82;;
56043;SDS011;41912;51.022;3.664;2023-06-22T05:58:52;23.20;;;11.77;;
56043;SDS011;41912;51.022;3.664;2023-06-22T06:01:17;16.55;;;10.45;;
56043;SDS011;41912;51.022;3.664;2023-06-22T06:03:43;21.13;;;11.25;;
56043;SDS011;41912;51.022;3.664;2023-06-22T06:06:09;16.23;;;10.20;;
56043;SDS011;41912;51.022;3.664;2023-06-22T06:08:36;19.05;;;10.63;;
56043;SDS011;41912;51.022;3.664;2023-06-22T06:11:04;22.35;;;11.02;;
56043;SDS011;41912;51.022;3.664;2023-06-22T06:13:30;21.08;;;11.68;;
56043;SDS011;41912;51.022;3.664;2023-06-22T06:15:56;20.27;;;10.90;;
56043;SDS011;41912;51.022;3.664;2023-06-22T06:18:22;24.38;;;11.77;;
56043;SDS011;41912;51.022;3.664;2023-06-22T06:20:48;16.90;;;10.60;;
56043;SDS011;41912;51.022;3.664;2023-06-22T06:23:14;14.80;;;9.43;;
56043;SDS011;41912;51.022;3.664;2023-06-22T06:25:39;16.77;;;10.18;;
56043;SDS011;41912;51.022;3.664;2023-06-22T06:28:05;20.73;;;10.90;;
56043;SDS011;41912;51.022;3.664;2023-06-22T06:30:31;23.88;;;12.60;;
56043;SDS011;41912;51.022;3.664;2023-06-22T06:32:57;23.67;;;11.60;;
56043;SDS011;41912;51.022;3.664;2023-06-22T06:35:22;21.50;;;11.70;;
56043;SDS011;41912;51.022;3.664;2023-06-22T06:37:48;28.02;;;13.05;;
56043;SDS011;41912;51.022;3.664;2023-06-22T06:40:15;26.98;;;12.50;;
56043;SDS011;41912;51.022;3.664;2023-06-22T06:42:46;22.73;;;12.68;;
56043;SDS011;41912;51.022;3.664;2023-06-22T06:45:23;21.33;;;12.90;;
56043;SDS011;41912;51.022;3.664;2023-06-22T06:47:49;26.33;;;12.07;;
56043;SDS011;41912;51.022;3.664;2023-06-22T06:50:16;29.10;;;13.20;;
56043;SDS011;41912;51.022;3.664;2023-06-22T06:52:42;25.98;;;12.75;;
56043;SDS011;41912;51.022;3.664;2023-06-22T06:55:08;31.30;;;13.50;;
56043;SDS011;41912;51.022;3.664;2023-06-22T06:57:39;28.83;;;12.30;;
56043;SDS011;41912;51.022;3.664;2023-06-22T07:00:05;22.52;;;13.13;;
56043;SDS011;41912;51.022;3.664;2023-06-22T07:02:36;26.98;;;12.75;;
56043;SDS011;41912;51.022;3.664;2023-06-22T07:05:02;29.23;;;13.68;;
56043;SDS011;41912;51.022;3.664;2023-06-22T07:07:29;34.67;;;15.32;;
56043;SDS011;41912;51.022;3.664;2023-06-22T07:09:55;20.70;;;12.23;;
56043;SDS011;41912;51.022;3.664;2023-06-22T07:12:21;25.02;;;13.80;;
56043;SDS011;41912;51.022;3.664;2023-06-22T07:14:46;27.92;;;15.30;;
56043;SDS011;41912;51.022;3.664;2023-06-22T07:17:12;26.27;;;13.82;;
56043;SDS011;41912;51.022;3.664;2023-06-22T07:19:38;34.65;;;15.40;;
56043;SDS011;41912;51.022;3.664;2023-06-22T07:22:04;25.67;;;14.98;;
56043;SDS011;41912;51.022;3.664;2023-06-22T07:24:29;31.73;;;13.18;;
56043;SDS011;41912;51.022;3.664;2023-06-22T07:26:55;25.52;;;15.07;;
56043;SDS011;41912;51.022;3.664;2023-06-22T07:29:24;22.38;;;13.15;;
56043;SDS011;41912;51.022;3.664;2023-06-22T07:31:50;23.08;;;13.95;;
56043;SDS011;41912;51.022;3.664;2023-06-22T07:34:21;25.60;;;14.02;;
56043;SDS011;41912;51.022;3.664;2023-06-22T07:36:47;23.52;;;14.40;;
56043;SDS011;41912;51.022;3.664;2023-06-22T07:39:13;23.90;;;13.73;;
56043;SDS011;41912;51.022;3.664;2023-06-22T07:41:39;27.42;;;15.10;;
56043;SDS011;41912;51.022;3.664;2023-06-22T07:44:08;26.13;;;13.82;;
56043;SDS011;41912;51.022;3.664;2023-06-22T07:46:34;22.75;;;13.32;;
56043;SDS011;41912;51.022;3.664;2023-06-22T07:49:00;25.45;;;15.20;;
56043;SDS011;41912;51.022;3.664;2023-06-22T07:51:26;18.00;;;12.45;;
56043;SDS011;41912;51.022;3.664;2023-06-22T07:53:52;24.13;;;13.90;;
56043;SDS011;41912;51.022;3.664;2023-06-22T07:56:17;28.40;;;13.80;;
56043;SDS011;41912;51.022;3.664;2023-06-22T07:58:46;24.58;;;14.07;;
56043;SDS011;41912;51.022;3.664;2023-06-22T08:01:15;27.15;;;14.23;;
56043;SDS011;41912;51.022;3.664;2023-06-22T08:03:42;25.85;;;13.27;;
56043;SDS011;41912;51.022;3.664;2023-06-22T08:06:08;22.52;;;12.52;;
56043;SDS011;41912;51.022;3.664;2023-06-22T08:08:34;24.17;;;13.52;;
56043;SDS011;41912;51.022;3.664;2023-06-22T08:11:00;22.75;;;12.57;;
56043;SDS011;41912;51.022;3.664;2023-06-22T08:13:26;28.98;;;12.85;;
56043;SDS011;41912;51.022;3.664;2023-06-22T08:15:51;27.23;;;15.05;;
56043;SDS011;41912;51.022;3.664;2023-06-22T08:18:17;28.73;;;14.85;;
56043;SDS011;41912;51.022;3.664;2023-06-22T08:20:42;26.10;;;15.30;;
56043;SDS011;41912;51.022;3.664;2023-06-22T08:23:08;27.15;;;14.48;;
56043;SDS011;41912;51.022;3.664;2023-06-22T08:25:34;23.55;;;14.35;;
56043;SDS011;41912;51.022;3.664;2023-06-22T08:28:00;29.42;;;15.02;;
56043;SDS011;41912;51.022;3.664;2023-06-22T08:30:26;25.13;;;14.85;;
56043;SDS011;41912;51.022;3.664;2023-06-22T08:32:52;24.17;;;13.43;;
56043;SDS011;41912;51.022;3.664;2023-06-22T08:35:18;24.80;;;13.55;;
56043;SDS011;41912;51.022;3.664;2023-06-22T08:37:44;25.13;;;15.10;;
56043;SDS011;41912;51.022;3.664;2023-06-22T08:40:15;24.70;;;15.38;;
56043;SDS011;41912;51.022;3.664;2023-06-22T08:42:41;25.85;;;15.20;;
56043;SDS011;41912;51.022;3.664;2023-06-22T08:45:06;23.85;;;14.13;;
56043;SDS011;41912;51.022;3.664;2023-06-22T08:47:32;25.05;;;14.95;;
56043;SDS011;41912;51.022;3.664;2023-06-22T08:49:58;23.08;;;13.82;;
56043;SDS011;41912;51.022;3.664;2023-06-22T08:52:24;23.13;;;13.63;;
56043;SDS011;41912;51.022;3.664;2023-06-22T08:54:50;25.52;;;12.57;;
56043;SDS011;41912;51.022;3.664;2023-06-22T08:57:16;17.30;;;13.15;;
56043;SDS011;41912;51.022;3.664;2023-06-22T08:59:42;18.85;;;12.93;;
56043;SDS011;41912;51.022;3.664;2023-06-22T09:02:08;24.50;;;12.43;;
56043;SDS011;41912;51.022;3.664;2023-06-22T09:04:34;24.30;;;12.23;;
56043;SDS011;41912;51.022;3.664;2023-06-22T09:07:02;19.30;;;12.30;;
56043;SDS011;41912;51.022;3.664;2023-06-22T09:09:28;19.70;;;13.82;;
56043;SDS011;41912;51.022;3.664;2023-06-22T09:11:54;20.63;;;13.60;;
56043;SDS011;41912;51.022;3.664;2023-06-22T09:14:20;23.33;;;12.68;;
56043;SDS011;41912;51.022;3.664;2023-06-22T09:16:45;20.30;;;12.68;;
56043;SDS011;41912;51.022;3.664;2023-06-22T09:19:11;21.02;;;13.10;;
56043;SDS011;41912;51.022;3.664;2023-06-22T09:21:37;17.90;;;12.82;;
56043;SDS011;41912;51.022;3.664;2023-06-22T09:24:03;20.60;;;12.05;;
56043;SDS011;41912;51.022;3.664;2023-06-22T09:26:29;21.65;;;12.30;;
56043;SDS011;41912;51.022;3.664;2023-06-22T09:28:55;19.42;;;12.90;;
56043;SDS011;41912;51.022;3.664;2023-06-22T09:31:20;20.42;;;12.05;;
56043;SDS011;41912;51.022;3.664;2023-06-22T09:33:52;24.52;;;11.60;;
56043;SDS011;41912;51.022;3.664;2023-06-22T09:36:19;15.52;;;10.88;;
56043;SDS011;41912;51.022;3.664;2023-06-22T09:38:45;18.25;;;11.48;;
56043;SDS011;41912;51.022;3.664;2023-06-22T09:41:11;24.02;;;11.75;;
56043;SDS011;41912;51.022;3.664;2023-06-22T09:43:36;21.33;;;11.70;;
56043;SDS011;41912;51.022;3.664;2023-06-22T09:46:02;20.85;;;12.32;;
56043;SDS011;41912;51.022;3.664;2023-06-22T09:48:28;18.77;;;10.93;;
56043;SDS011;41912;51.022;3.664;2023-06-22T09:50:57;19.75;;;11.98;;
56043;SDS011;41912;51.022;3.664;2023-06-22T09:53:23;19.95;;;11.93;;
56043;SDS011;41912;51.022;3.664;2023-06-22T09:55:48;18.67;;;12.50;;
56043;SDS011;41912;51.022;3.664;2023-06-22T09:58:14;20.30;;;11.55;;
56043;SDS011;41912;51.022;3.664;2023-06-22T10:00:40;21.15;;;12.85;;
56043;SDS011;41912;51.022;3.664;2023-06-22T10:03:06;32.70;;;12.88;;
56043;SDS011;41912;51.022;3.664;2023-06-22T10:05:32;19.92;;;12.52;;
56043;SDS011;41912;51.022;3.664;2023-06-22T10:07:57;37.03;;;14.82;;
56043;SDS011;41912;51.022;3.664;2023-06-22T10:10:23;23.63;;;14.65;;
56043;SDS011;41912;51.022;3.664;2023-06-22T10:12:54;19.60;;;13.10;;
56043;SDS011;41912;51.022;3.664;2023-06-22T10:15:21;21.77;;;14.05;;
56043;SDS011;41912;51.022;3.664;2023-06-22T10:17:47;19.58;;;13.40;;
56043;SDS011;41912;51.022;3.664;2023-06-22T10:20:13;20.70;;;14.13;;
56043;SDS011;41912;51.022;3.664;2023-06-22T10:22:39;21.02;;;14.30;;
56043;SDS011;41912;51.022;3.664;2023-06-22T10:25:06;23.08;;;14.65;;
56043;SDS011;41912;51.022;3.664;2023-06-22T10:27:32;21.95;;;13.70;;
56043;SDS011;41912;51.022;3.664;2023-06-22T10:29:58;25.45;;;15.77;;
56043;SDS011;41912;51.022;3.664;2023-06-22T10:32:24;23.85;;;14.93;;
56043;SDS011;41912;51.022;3.664;2023-06-22T10:34:50;20.85;;;12.98;;
56043;SDS011;41912;51.022;3.664;2023-06-22T10:37:15;14.00;;;9.25;;
56043;SDS011;41912;51.022;3.664;2023-06-22T10:39:41;16.27;;;9.55;;
56043;SDS011;41912;51.022;3.664;2023-06-22T10:42:07;17.80;;;9.52;;
56043;SDS011;41912;51.022;3.664;2023-06-22T10:44:32;16.92;;;9.52;;
56043;SDS011;41912;51.022;3.664;2023-06-22T10:46:58;17.67;;;9.85;;
56043;SDS011;41912;51.022;3.664;2023-06-22T10:49:24;17.65;;;10.93;;
56043;SDS011;41912;51.022;3.664;2023-06-22T10:51:49;17.15;;;11.35;;
56043;SDS011;41912;51.022;3.664;2023-06-22T10:54:15;23.48;;;11.48;;
56043;SDS011;41912;51.022;3.664;2023-06-22T10:56:43;16.85;;;11.75;;
56043;SDS011;41912;51.022;3.664;2023-06-22T10:59:08;18.00;;;11.82;;
56043;SDS011;41912;51.022;3.664;2023-06-22T11:01:34;16.88;;;11.05;;
56043;SDS011;41912;51.022;3.664;2023-06-22T11:04:00;21.42;;;12.18;;
56043;SDS011;41912;51.022;3.664;2023-06-22T11:06:26;23.05;;;12.70;;
56043;SDS011;41912;51.022;3.664;2023-06-22T11:08:51;21.45;;;12.25;;
56043;SDS011;41912;51.022;3.664;2023-06-22T11:11:17;18.27;;;12.27;;
56043;SDS011;41912;51.022;3.664;2023-06-22T11:13:43;20.92;;;12.35;;
56043;SDS011;41912;51.022;3.664;2023-06-22T11:16:09;21.05;;;13.18;;
56043;SDS011;41912;51.022;3.664;2023-06-22T11:18:35;17.00;;;11.48;;
56043;SDS011;41912;51.022;3.664;2023-06-22T11:21:01;15.50;;;10.27;;
56043;SDS011;41912;51.022;3.664;2023-06-22T11:23:26;21.33;;;10.15;;
56043;SDS011;41912;51.022;3.664;2023-06-22T11:25:53;15.70;;;10.10;;
56043;SDS011;41912;51.022;3.664;2023-06-22T11:28:19;20.23;;;10.98;;
56043;SDS011;41912;51.022;3.664;2023-06-22T11:30:45;18.85;;;10.82;;
56043;SDS011;41912;51.022;3.664;2023-06-22T11:33:10;19.63;;;11.57;;
56043;SDS011;41912;51.022;3.664;2023-06-22T11:35:36;16.73;;;11.13;;
56043;SDS011;41912;51.022;3.664;2023-06-22T11:38:02;15.88;;;10.45;;
56043;SDS011;41912;51.022;3.664;2023-06-22T11:40:29;19.52;;;10.75;;
56043;SDS011;41912;51.022;3.664;2023-06-22T11:42:54;18.02;;;10.52;;
56043;SDS011;41912;51.022;3.664;2023-06-22T11:45:20;15.00;;;10.48;;
56043;SDS011;41912;51.022;3.664;2023-06-22T11:47:46;16.60;;;10.77;;
56043;SDS011;41912;51.022;3.664;2023-06-22T11:50:12;12.82;;;9.20;;
56043;SDS011;41912;51.022;3.664;2023-06-22T11:52:38;15.65;;;9.40;;
56043;SDS011;41912;51.022;3.664;2023-06-22T11:55:03;17.23;;;10.23;;
56043;SDS011;41912;51.022;3.664;2023-06-22T11:57:32;10.15;;;6.25;;
56043;SDS011;41912;51.022;3.664;2023-06-22T12:00:02;12.37;;;7.90;;
56043;SDS011;41912;51.022;3.664;2023-06-22T12:02:49;13.32;;;7.22;;
56043;SDS011;41912;51.022;3.664;2023-06-22T12:05:16;11.68;;;6.90;;
56043;SDS011;41912;51.022;3.664;2023-06-22T12:07:43;10.48;;;6.50;;
56043;SDS011;41912;51.022;3.664;2023-06-22T12:10:08;10.13;;;6.10;;
56043;SDS011;41912;51.022;3.664;2023-06-22T12:12:34;10.02;;;6.90;;
56043;SDS011;41912;51.022;3.664;2023-06-22T12:15:00;9.77;;;6.43;;
56043;SDS011;41912;51.022;3.664;2023-06-22T12:17:28;12.25;;;6.82;;
56043;SDS011;41912;51.022;3.664;2023-06-22T12:19:54;12.50;;;6.85;;
56043;SDS011;41912;51.022;3.664;2023-06-22T12:22:20;13.90;;;7.60;;
56043;SDS011;41912;51.022;3.664;2023-06-22T12:24:46;11.25;;;7.72;;
56043;SDS011;41912;51.022;3.664;2023-06-22T12:27:12;16.02;;;7.82;;
56043;SDS011;41912;51.022;3.664;2023-06-22T12:29:37;12.35;;;7.28;;
56043;SDS011;41912;51.022;3.664;2023-06-22T12:32:03;12.13;;;7.95;;
56043;SDS011;41912;51.022;3.664;2023-06-22T12:34:29;14.55;;;8.20;;
56043;SDS011;41912;51.022;3.664;2023-06-22T12:36:55;17.90;;;8.43;;
56043;SDS011;41912;51.022;3.664;2023-06-22T12:39:20;18.77;;;9.77;;
56043;SDS011;41912;51.022;3.664;2023-06-22T12:41:46;18.20;;;9.55;;
56043;SDS011;41912;51.022;3.664;2023-06-22T12:44:12;19.10;;;9.70;;
56043;SDS011;41912;51.022;3.664;2023-06-22T12:46:37;15.40;;;9.73;;
56043;SDS011;41912;51.022;3.664;2023-06-22T12:49:06;16.73;;;10.70;;
56043;SDS011;41912;51.022;3.664;2023-06-22T12:51:31;20.67;;;10.60;;
56043;SDS011;41912;51.022;3.664;2023-06-22T12:53:57;24.23;;;12.05;;
56043;SDS011;41912;51.022;3.664;2023-06-22T12:56:23;24.73;;;11.80;;
56043;SDS011;41912;51.022;3.664;2023-06-22T12:58:48;22.75;;;12.15;;
56043;SDS011;41912;51.022;3.664;2023-06-22T13:01:14;19.88;;;11.88;;
56043;SDS011;41912;51.022;3.664;2023-06-22T13:03:40;20.77;;;12.90;;
56043;SDS011;41912;51.022;3.664;2023-06-22T13:06:06;21.60;;;11.77;;
56043;SDS011;41912;51.022;3.664;2023-06-22T13:08:32;19.10;;;11.20;;
56043;SDS011;41912;51.022;3.664;2023-06-22T13:10:58;20.05;;;11.55;;
56043;SDS011;41912;51.022;3.664;2023-06-22T13:13:23;24.17;;;12.48;;
56043;SDS011;41912;51.022;3.664;2023-06-22T13:15:50;18.38;;;11.90;;
56043;SDS011;41912;51.022;3.664;2023-06-22T13:18:17;19.13;;;12.50;;
56043;SDS011;41912;51.022;3.664;2023-06-22T13:20:43;21.20;;;12.52;;
56043;SDS011;41912;51.022;3.664;2023-06-22T13:23:10;19.83;;;12.45;;
56043;SDS011;41912;51.022;3.664;2023-06-22T13:25:36;23.30;;;12.50;;
56043;SDS011;41912;51.022;3.664;2023-06-22T13:28:02;19.20;;;12.35;;
56043;SDS011;41912;51.022;3.664;2023-06-22T13:30:27;17.80;;;12.10;;
56043;SDS011;41912;51.022;3.664;2023-06-22T13:32:53;19.73;;;11.65;;
56043;SDS011;41912;51.022;3.664;2023-06-22T13:35:19;21.73;;;13.50;;
56043;SDS011;41912;51.022;3.664;2023-06-22T13:37:44;20.42;;;12.80;;
56043;SDS011;41912;51.022;3.664;2023-06-22T13:40:10;17.42;;;12.65;;
56043;SDS011;41912;51.022;3.664;2023-06-22T13:42:36;22.85;;;13.80;;
56043;SDS011;41912;51.022;3.664;2023-06-22T13:45:02;21.95;;;13.27;;
56043;SDS011;41912;51.022;3.664;2023-06-22T13:47:28;19.70;;;13.07;;
56043;SDS011;41912;51.022;3.664;2023-06-22T13:49:54;19.83;;;12.57;;
56043;SDS011;41912;51.022;3.664;2023-06-22T13:52:20;22.85;;;11.77;;
56043;SDS011;41912;51.022;3.664;2023-06-22T13:54:46;15.75;;;11.68;;
56043;SDS011;41912;51.022;3.664;2023-06-22T13:57:11;22.58;;;13.18;;
56043;SDS011;41912;51.022;3.664;2023-06-22T13:59:37;22.05;;;11.82;;
56043;SDS011;41912;51.022;3.664;2023-06-22T14:02:02;15.93;;;11.15;;
56043;SDS011;41912;51.022;3.664;2023-06-22T14:04:28;19.42;;;12.00;;
56043;SDS011;41912;51.022;3.664;2023-06-22T14:06:54;17.40;;;11.55;;
56043;SDS011;41912;51.022;3.664;2023-06-22T14:09:21;21.00;;;12.73;;
56043;SDS011;41912;51.022;3.664;2023-06-22T14:11:46;21.55;;;12.85;;
56043;SDS011;41912;51.022;3.664;2023-06-22T14:14:12;19.48;;;11.50;;
56043;SDS011;41912;51.022;3.664;2023-06-22T14:16:37;23.63;;;13.77;;
56043;SDS011;41912;51.022;3.664;2023-06-22T14:19:03;20.88;;;13.27;;
56043;SDS011;41912;51.022;3.664;2023-06-22T14:21:29;23.35;;;15.27;;
56043;SDS011;41912;51.022;3.664;2023-06-22T14:23:54;21.52;;;15.20;;
56043;SDS011;41912;51.022;3.664;2023-06-22T14:26:20;21.63;;;15.15;;